Time;durP1;ratioP1;P1;durP2;ratioP2;P2;SDS_P1;SDS_P2;PMS_P1;PMS_P2;Temp;Humidity;BMP_temperature;BMP_pressure;BME280_temperature;BME280_humidity;BME280_pressure;Samples;Min_cycle;Max_cycle;Signal;HPM_P1;HPM_P2
2022/05/04 00:00:20;;;;;;;12.40;8.50;;;12.80;64.80;;;;;;4993422;28;20363;-14
2022/05/04 00:02:46;;;;;;;17.98;11.25;;;12.70;65.00;;;;;;4993603;28;20081;-16
2022/05/04 00:05:15;;;;;;;13.73;8.82;;;12.70;64.60;;;;;;4992169;28;20022;-14
2022/05/04 00:07:42;;;;;;;11.95;9.20;;;12.60;64.80;;;;;;4993799;28;20062;-16
2022/05/04 00:10:08;;;;;;;15.85;9.63;;;12.60;64.90;;;;;;4993428;28;20501;-16
2022/05/04 00:12:35;;;;;;;15.30;9.95;;;12.60;65.10;;;;;;4993618;28;20042;-15
2022/05/04 00:15:02;;;;;;;13.30;9.10;;;12.50;65.40;;;;;;4994077;28;20022;-15
2022/05/04 00:17:28;;;;;;;13.20;9.13;;;12.50;65.60;;;;;;4993435;28;20035;-15
2022/05/04 00:19:54;;;;;;;13.38;9.68;;;12.50;65.80;;;;;;4993317;28;20108;-16
2022/05/04 00:22:21;;;;;;;13.13;10.35;;;12.50;65.80;;;;;;4993573;28;20536;-16
2022/05/04 00:24:48;;;;;;;11.25;8.38;;;12.50;66.20;;;;;;4997237;28;20037;-16
2022/05/04 00:27:15;;;;;;;9.93;7.15;;;12.50;66.10;;;;;;4997202;28;20066;-15
2022/05/04 00:29:43;;;;;;;10.73;8.18;;;12.40;65.80;;;;;;4997221;28;20037;-14
2022/05/04 00:32:11;;;;;;;10.60;7.45;;;12.40;66.10;;;;;;4997315;28;20022;-16
2022/05/04 00:34:38;;;;;;;13.13;9.52;;;12.40;66.30;;;;;;4996947;28;20032;-17
2022/05/04 00:37:06;;;;;;;13.15;9.23;;;12.40;66.70;;;;;;4997264;28;20030;-16
2022/05/04 00:39:32;;;;;;;13.55;10.35;;;12.40;66.90;;;;;;4997330;28;20034;-17
2022/05/04 00:42:19;;;;;;;14.30;10.15;;;12.30;67.30;;;;;;4996918;28;20034;-16
2022/05/04 00:44:47;;;;;;;13.32;9.00;;;12.30;67.50;;;;;;4997163;28;20046;-15
2022/05/04 00:47:15;;;;;;;19.67;9.95;;;12.20;67.30;;;;;;4997046;28;20030;-16
2022/05/04 00:49:46;;;;;;;16.88;9.82;;;12.20;67.40;;;;;;4997662;28;20049;-17
2022/05/04 00:52:14;;;;;;;14.05;9.93;;;12.10;67.50;;;;;;4997018;28;20088;-16
2022/05/04 00:54:42;;;;;;;12.95;9.77;;;12.00;67.40;;;;;;4997672;28;20029;-15
2022/05/04 00:57:10;;;;;;;17.17;9.27;;;12.00;67.50;;;;;;4997026;28;20045;-15
2022/05/04 00:59:37;;;;;;;10.82;8.02;;;12.00;67.90;;;;;;4996894;28;20080;-17
2022/05/04 01:02:05;;;;;;;12.10;8.50;;;11.90;67.60;;;;;;4996502;28;20034;-16
2022/05/04 01:04:34;;;;;;;11.38;8.43;;;11.90;67.70;;;;;;4995431;28;20381;-15
2022/05/04 01:07:00;;;;;;;12.48;8.90;;;11.90;67.80;;;;;;4996563;28;20035;-17
2022/05/04 01:09:26;;;;;;;11.45;8.85;;;11.90;68.70;;;;;;4996749;28;20132;-16
2022/05/04 01:11:52;;;;;;;13.55;9.57;;;11.80;69.10;;;;;;4995199;28;20537;-17
2022/05/04 01:14:18;;;;;;;15.00;9.00;;;11.70;68.90;;;;;;4995447;28;20054;-13
2022/05/04 01:16:48;;;;;;;10.13;7.45;;;11.70;69.40;;;;;;4996245;28;20386;-14
2022/05/04 01:19:15;;;;;;;10.52;7.70;;;11.60;68.70;;;;;;4996276;28;20033;-15
2022/05/04 01:21:41;;;;;;;11.43;8.43;;;11.60;68.60;;;;;;4996317;28;20562;-16
2022/05/04 01:24:09;;;;;;;12.70;8.38;;;11.60;69.00;;;;;;4996131;28;20125;-16
2022/05/04 01:26:35;;;;;;;15.77;10.13;;;11.50;68.80;;;;;;4995833;28;20032;-14
2022/05/04 01:29:01;;;;;;;12.18;8.27;;;11.40;69.40;;;;;;4996353;28;20026;-16
2022/05/04 01:31:27;;;;;;;14.25;8.27;;;11.40;69.30;;;;;;4996598;28;20402;-17
2022/05/04 01:33:54;;;;;;;15.45;10.38;;;11.30;69.40;;;;;;4995165;28;20037;-17
2022/05/04 01:36:20;;;;;;;16.50;9.52;;;11.30;69.90;;;;;;4978007;28;20085;-16
2022/05/04 01:38:46;;;;;;;16.08;10.70;;;11.20;69.70;;;;;;4994712;28;20514;-17
2022/05/04 01:44:01;;;;;;;20.30;11.88;;;11.20;69.60;;;;;;4976687;28;20184;-17
2022/05/04 01:46:26;;;;;;;13.90;9.70;;;11.10;70.20;;;;;;4995755;28;20553;-14
2022/05/04 01:48:53;;;;;;;14.27;10.38;;;11.20;70.90;;;;;;4995990;28;20389;-16
2022/05/04 01:51:19;;;;;;;11.57;7.50;;;11.10;70.70;;;;;;4995752;28;20034;-16
2022/05/04 01:53:46;;;;;;;13.10;8.95;;;11.10;70.50;;;;;;4995616;28;20034;-15
2022/05/04 01:56:12;;;;;;;10.43;7.97;;;11.00;70.40;;;;;;4994390;28;20034;-15
2022/05/04 01:58:38;;;;;;;10.85;7.90;;;11.00;71.00;;;;;;4995685;28;20027;-15
2022/05/04 02:01:04;;;;;;;11.48;8.15;;;10.90;70.80;;;;;;4995729;28;20044;-14
2022/05/04 02:03:30;;;;;;;11.85;7.38;;;10.90;70.80;;;;;;4995589;28;20073;-12
2022/05/04 02:05:56;;;;;;;14.52;10.35;;;10.80;71.00;;;;;;4995546;28;20039;-15
2022/05/04 02:08:22;;;;;;;11.50;8.05;;;10.70;72.40;;;;;;4995080;28;20029;-16
2022/05/04 02:10:49;;;;;;;12.15;8.20;;;10.60;71.40;;;;;;4995606;28;20023;-17
2022/05/04 02:13:15;;;;;;;10.57;8.10;;;10.60;71.30;;;;;;4995460;28;20525;-16
2022/05/04 02:15:41;;;;;;;18.52;13.13;;;10.60;71.50;;;;;;4995313;28;20515;-16
2022/05/04 02:18:07;;;;;;;11.90;8.88;;;10.50;71.70;;;;;;4995111;28;20037;-13
2022/05/04 02:20:33;;;;;;;13.23;9.90;;;10.50;72.20;;;;;;4994630;28;20060;-14
2022/05/04 02:22:59;;;;;;;11.60;8.23;;;10.50;71.90;;;;;;4995386;28;20118;-13
2022/05/04 02:25:25;;;;;;;13.63;8.70;;;10.50;72.30;;;;;;4995573;28;20561;-16
2022/05/04 02:27:51;;;;;;;14.10;10.23;;;10.50;71.80;;;;;;4995315;28;20076;-13
2022/05/04 02:30:17;;;;;;;17.98;11.20;;;10.50;73.00;;;;;;4994725;28;20057;-13
2022/05/04 02:32:42;;;;;;;16.02;10.68;;;10.50;72.60;;;;;;4994856;28;20057;-14
2022/05/04 02:37:56;;;;;;;15.43;10.70;;;10.50;72.80;;;;;;4995231;28;20081;-17
2022/05/04 02:40:24;;;;;;;14.05;9.50;;;10.50;72.80;;;;;;4994542;28;20062;-16
2022/05/04 02:42:50;;;;;;;16.50;10.45;;;10.50;72.70;;;;;;4995011;28;20087;-16
2022/05/04 02:45:16;;;;;;;15.10;10.88;;;10.50;72.90;;;;;;4993099;28;20502;-16
2022/05/04 02:47:42;;;;;;;15.43;10.35;;;10.50;73.00;;;;;;4994573;28;20072;-16
2022/05/04 02:50:08;;;;;;;14.57;10.00;;;10.50;73.20;;;;;;4994580;28;20034;-16
2022/05/04 02:52:34;;;;;;;14.13;9.95;;;10.50;73.30;;;;;;4993157;28;20493;-14
2022/05/04 02:55:00;;;;;;;16.50;11.27;;;10.50;73.50;;;;;;4994424;28;20034;-16
2022/05/04 02:57:26;;;;;;;14.80;9.80;;;10.40;73.50;;;;;;4994677;28;20041;-17
2022/05/04 02:59:52;;;;;;;15.88;11.27;;;10.40;73.20;;;;;;4993184;28;20120;-18
2022/05/04 03:02:29;;;;;;;18.80;12.27;;;10.30;74.00;;;;;;4994485;28;20030;-16
2022/05/04 03:05:01;;;;;;;18.37;12.63;;;10.30;74.50;;;;;;4994608;28;20023;-15
2022/05/04 03:07:28;;;;;;;18.08;12.30;;;10.30;74.60;;;;;;4994811;28;20223;-16
2022/05/04 03:09:55;;;;;;;20.05;12.35;;;10.20;74.50;;;;;;4993016;28;20026;-17
2022/05/04 03:12:22;;;;;;;12.98;9.10;;;10.20;74.40;;;;;;4994194;28;20057;-14
2022/05/04 03:14:47;;;;;;;14.75;10.18;;;10.20;74.00;;;;;;4994821;28;20161;-16
2022/05/04 03:17:14;;;;;;;16.35;11.77;;;10.10;74.00;;;;;;4994492;28;20101;-17
2022/05/04 03:19:40;;;;;;;17.25;12.07;;;10.10;74.40;;;;;;4993844;28;20050;-16
2022/05/04 03:22:06;;;;;;;16.45;12.65;;;10.10;75.00;;;;;;4994134;28;20069;-16
2022/05/04 03:24:33;;;;;;;18.05;12.02;;;10.10;75.30;;;;;;4993859;28;20513;-16
2022/05/04 03:26:59;;;;;;;20.92;13.00;;;10.10;75.20;;;;;;4993941;28;20386;-17
2022/05/04 03:29:26;;;;;;;15.75;10.68;;;10.00;74.90;;;;;;4994259;28;20030;-17
2022/05/04 03:31:52;;;;;;;19.83;12.20;;;10.00;74.80;;;;;;4994156;28;20026;-16
2022/05/04 03:34:18;;;;;;;13.98;10.38;;;9.90;75.30;;;;;;4993731;28;20022;-15
2022/05/04 03:36:45;;;;;;;13.95;9.77;;;9.90;75.60;;;;;;4993766;28;20069;-17
2022/05/04 03:39:11;;;;;;;18.45;12.25;;;9.90;74.90;;;;;;4994429;28;20097;-16
2022/05/04 03:41:38;;;;;;;27.40;17.00;;;9.90;75.70;;;;;;4994065;28;20037;-16
2022/05/04 03:44:06;;;;;;;17.27;11.23;;;9.90;76.20;;;;;;4994089;28;20038;-16
2022/05/04 03:46:45;;;;;;;17.90;11.85;;;9.90;76.00;;;;;;4993797;28;20038;-14
2022/05/04 03:49:12;;;;;;;17.48;12.23;;;9.90;75.70;;;;;;4993820;28;20022;-17
2022/05/04 03:51:38;;;;;;;16.83;11.48;;;9.90;76.00;;;;;;4993601;28;20478;-17
2022/05/04 03:54:05;;;;;;;15.27;10.27;;;9.90;75.60;;;;;;4993644;28;20039;-16
2022/05/04 03:56:32;;;;;;;15.57;11.00;;;9.90;75.70;;;;;;4993469;28;20037;-17
2022/05/04 03:58:58;;;;;;;18.08;11.50;;;9.90;75.50;;;;;;4995549;28;20079;-16
2022/05/04 04:01:24;;;;;;;21.70;12.70;;;9.90;75.40;;;;;;4997685;28;20054;-16
2022/05/04 04:03:50;;;;;;;19.55;12.20;;;9.90;75.70;;;;;;4997666;28;20153;-17
2022/05/04 04:06:16;;;;;;;16.25;10.93;;;9.90;75.50;;;;;;4997198;28;20522;-17
2022/05/04 04:08:42;;;;;;;21.13;14.85;;;9.90;75.50;;;;;;4997887;28;20032;-17
2022/05/04 04:11:08;;;;;;;18.65;12.00;;;9.90;75.40;;;;;;4997967;28;20026;-17
2022/05/04 04:13:34;;;;;;;19.35;11.88;;;9.90;75.30;;;;;;4997811;28;20068;-16
2022/05/04 04:16:00;;;;;;;21.85;14.40;;;9.90;75.50;;;;;;4997451;28;20046;-17
2022/05/04 04:18:27;;;;;;;26.05;17.25;;;9.90;75.40;;;;;;4997504;28;20041;-16
2022/05/04 04:23:39;;;;;;;28.40;17.67;;;9.90;75.60;;;;;;4997944;28;20081;-16
2022/05/04 04:26:06;;;;;;;28.05;19.40;;;9.90;75.40;;;;;;4997118;28;20121;-17
2022/05/04 04:28:38;;;;;;;24.52;16.30;;;10.00;76.00;;;;;;4997092;28;20038;-17
2022/05/04 04:31:05;;;;;;;23.60;16.70;;;10.00;75.90;;;;;;4997187;28;20474;-16
2022/05/04 04:33:31;;;;;;;30.67;19.63;;;10.10;77.20;;;;;;4997312;28;20026;-16
2022/05/04 04:35:58;;;;;;;25.48;17.15;;;10.10;77.00;;;;;;4997281;28;20026;-16
2022/05/04 04:38:25;;;;;;;19.98;13.85;;;10.20;76.10;;;;;;4996832;28;20535;-16
2022/05/04 04:40:51;;;;;;;19.50;13.55;;;10.20;75.80;;;;;;4997274;28;20034;-17
2022/05/04 04:43:18;;;;;;;17.90;12.07;;;10.20;75.90;;;;;;4997363;28;20035;-16
2022/05/04 04:45:48;;;;;;;18.67;11.93;;;10.30;75.90;;;;;;4997051;28;20121;-17
2022/05/04 04:48:16;;;;;;;21.48;15.00;;;10.30;76.30;;;;;;4996652;28;20022;-15
2022/05/04 04:50:46;;;;;;;17.67;12.15;;;10.40;76.20;;;;;;4996697;28;20053;-17
2022/05/04 04:53:12;;;;;;;21.30;13.88;;;10.50;75.70;;;;;;4996715;28;20038;-14
2022/05/04 04:55:41;;;;;;;19.35;13.93;;;10.50;75.80;;;;;;4996899;28;20019;-14
2022/05/04 04:58:07;;;;;;;17.65;12.80;;;10.60;75.60;;;;;;4995444;28;20030;-14
2022/05/04 05:00:34;;;;;;;17.15;12.40;;;10.70;76.00;;;;;;4996403;28;20544;-15
2022/05/04 05:03:01;;;;;;;18.02;12.07;;;10.80;76.30;;;;;;4996867;28;20113;-15
2022/05/04 05:05:27;;;;;;;21.50;14.55;;;10.90;76.00;;;;;;4996614;28;20038;-12
2022/05/04 05:07:53;;;;;;;23.45;16.20;;;10.90;77.00;;;;;;4996516;28;20455;-13
2022/05/04 05:10:19;;;;;;;17.48;12.30;;;11.00;75.70;;;;;;4996226;28;20077;-14
2022/05/04 05:12:45;;;;;;;16.58;11.10;;;11.20;75.40;;;;;;4996376;28;20026;-24
2022/05/04 05:17:56;;;;;;;15.93;11.63;;;11.40;74.80;;;;;;4996980;28;20058;-14
2022/05/04 05:20:22;;;;;;;16.70;12.00;;;11.50;74.90;;;;;;4996049;28;20065;-15
2022/05/04 05:22:48;;;;;;;16.25;12.80;;;11.70;74.40;;;;;;4996564;28;20022;-14
2022/05/04 05:25:14;;;;;;;17.65;12.80;;;11.90;74.50;;;;;;4996362;28;20046;-13
2022/05/04 05:27:40;;;;;;;22.52;16.42;;;12.00;75.20;;;;;;4996748;28;20504;-14
2022/05/04 05:30:07;;;;;;;20.27;14.20;;;12.20;75.40;;;;;;4996050;28;20038;-14
2022/05/04 05:32:33;;;;;;;16.90;12.10;;;12.40;75.10;;;;;;4995987;28;20050;-13
2022/05/04 05:34:58;;;;;;;22.25;14.40;;;12.60;73.80;;;;;;4996531;28;20057;-14
2022/05/04 05:37:24;;;;;;;19.70;13.77;;;12.70;73.40;;;;;;4996408;28;20026;-14
2022/05/04 05:39:50;;;;;;;19.40;14.68;;;12.90;73.00;;;;;;4996170;28;20034;-17
2022/05/04 05:42:16;;;;;;;20.20;14.05;;;13.00;72.50;;;;;;4996395;28;20505;-14
2022/05/04 05:44:42;;;;;;;22.80;14.90;;;13.20;72.60;;;;;;4995707;28;20394;-13
2022/05/04 05:47:08;;;;;;;17.92;13.75;;;13.40;72.90;;;;;;4995887;28;20042;-15
2022/05/04 05:49:34;;;;;;;25.92;16.52;;;13.70;72.50;;;;;;4995937;28;20474;-14
2022/05/04 05:52:00;;;;;;;22.48;13.52;;;13.90;72.30;;;;;;4995600;28;20036;-16
2022/05/04 05:54:25;;;;;;;20.88;15.65;;;14.10;72.20;;;;;;4995376;28;20030;-15
2022/05/04 05:56:51;;;;;;;17.92;11.98;;;14.40;71.70;;;;;;4995914;28;20105;-15
2022/05/04 05:59:17;;;;;;;14.82;10.93;;;14.50;71.20;;;;;;4995483;28;20480;-15
2022/05/04 06:01:43;;;;;;;16.33;12.65;;;14.80;71.10;;;;;;4995499;28;20084;-15
2022/05/04 06:04:10;;;;;;;21.17;13.85;;;15.00;71.20;;;;;;4995463;28;20038;-15
2022/05/04 06:06:36;;;;;;;18.23;13.95;;;15.30;71.00;;;;;;4995061;28;20041;-17
2022/05/04 06:09:03;;;;;;;19.48;12.82;;;15.50;70.10;;;;;;4995685;28;20105;-16
2022/05/04 06:11:31;;;;;;;19.60;13.85;;;15.80;69.40;;;;;;4995727;28;20034;-14
2022/05/04 06:13:57;;;;;;;15.00;11.60;;;15.90;68.90;;;;;;4995236;28;20218;-14
2022/05/04 06:16:26;;;;;;;17.20;12.98;;;16.00;68.30;;;;;;4995031;28;20073;-16
2022/05/04 06:18:52;;;;;;;18.88;14.20;;;16.10;68.80;;;;;;5084344;23;20065;-19
2022/05/04 06:21:17;;;;;;;14.23;11.43;;;16.20;68.00;;;;;;5014512;28;20026;-20
2022/05/04 06:23:43;;;;;;;16.00;10.05;;;16.20;68.10;;;;;;5014739;28;20029;-19
2022/05/04 06:26:09;;;;;;;17.77;11.80;;;16.20;67.90;;;;;;5014580;28;20037;-20
2022/05/04 06:28:35;;;;;;;17.48;13.82;;;16.30;67.80;;;;;;5014748;28;20030;-19
2022/05/04 06:36:29;;;;;;;19.52;13.63;;;16.80;66.30;;;;;;5014660;28;20041;-20
2022/05/04 06:38:55;;;;;;;16.13;12.27;;;16.90;66.00;;;;;;5014905;28;20026;-20
2022/05/04 06:41:21;;;;;;;16.90;12.38;;;17.30;65.00;;;;;;5014645;28;20037;-21
2022/05/04 06:43:47;;;;;;;16.23;10.65;;;17.50;63.80;;;;;;5014521;28;20400;-20
2022/05/04 06:46:13;;;;;;;15.27;11.32;;;17.70;63.40;;;;;;5014183;28;20048;-21
2022/05/04 06:48:40;;;;;;;14.07;10.48;;;17.90;62.90;;;;;;5014201;28;20022;-21
2022/05/04 06:51:07;;;;;;;17.58;11.77;;;18.20;62.40;;;;;;5014195;28;20034;-21
2022/05/04 06:53:33;;;;;;;16.45;11.18;;;18.40;61.50;;;;;;5014437;28;20043;-20
2022/05/04 06:56:00;;;;;;;12.43;9.45;;;18.50;60.80;;;;;;5014129;28;20026;-20
2022/05/04 06:58:26;;;;;;;18.42;12.60;;;18.70;61.00;;;;;;5013897;28;20030;-20
2022/05/04 07:00:52;;;;;;;16.65;11.40;;;18.90;60.10;;;;;;5013975;28;20041;-18
2022/05/04 07:03:19;;;;;;;11.05;9.02;;;19.00;59.70;;;;;;5014672;28;20350;-20
2022/05/04 07:05:45;;;;;;;14.48;9.75;;;19.10;59.90;;;;;;5014226;28;20061;-17
2022/05/04 07:08:11;;;;;;;12.88;10.40;;;19.30;59.40;;;;;;5014202;28;20473;-15
2022/05/04 07:10:37;;;;;;;15.43;11.50;;;19.50;59.10;;;;;;5013916;28;20500;-16
2022/05/04 07:13:03;;;;;;;17.42;12.10;;;19.90;58.30;;;;;;5136668;23;20020;-17
2022/05/04 07:15:29;;;;;;;19.48;12.73;;;20.20;58.00;;;;;;5013909;28;20508;-20
2022/05/04 07:17:56;;;;;;;16.77;12.05;;;20.40;55.70;;;;;;5014396;28;20099;-20
2022/05/04 07:20:22;;;;;;;15.02;10.88;;;20.30;55.10;;;;;;5012351;28;20508;-19
2022/05/04 07:22:47;;;;;;;17.55;12.05;;;20.20;55.90;;;;;;5012851;28;20034;-20
2022/05/04 07:25:13;;;;;;;17.65;12.85;;;20.30;57.40;;;;;;5013880;28;20030;-20
2022/05/04 07:27:40;;;;;;;18.55;11.02;;;20.50;57.50;;;;;;5013731;28;20030;-20
2022/05/04 07:30:07;;;;;;;12.88;10.30;;;20.50;56.50;;;;;;5013782;28;20018;-19
2022/05/04 07:32:32;;;;;;;14.70;9.85;;;20.60;56.20;;;;;;5012453;28;20030;-19
2022/05/04 07:34:59;;;;;;;15.20;11.23;;;20.90;55.80;;;;;;5013986;28;20030;-19
2022/05/04 07:37:26;;;;;;;15.15;10.93;;;21.00;55.20;;;;;;5013757;28;20052;-20
2022/05/04 07:42:39;;;;;;;13.65;8.93;;;21.30;54.90;;;;;;5013591;28;20393;-19
2022/05/04 07:45:11;;;;;;;14.57;9.48;;;21.40;54.30;;;;;;5013436;28;20038;-19
2022/05/04 07:47:38;;;;;;;11.10;7.95;;;21.70;54.60;;;;;;5013674;28;20030;-19
2022/05/04 07:50:07;;;;;;;14.70;9.50;;;21.90;53.70;;;;;;5013509;28;20076;-19
2022/05/04 07:52:33;;;;;;;11.00;7.45;;;22.10;53.10;;;;;;5011843;28;20083;-19
2022/05/04 07:54:59;;;;;;;14.02;7.95;;;22.30;53.40;;;;;;5013375;28;20049;-19
2022/05/04 07:57:26;;;;;;;11.82;8.75;;;22.70;53.10;;;;;;5013736;28;20477;-20
2022/05/04 08:05:24;;;;;;;12.75;7.82;;;24.30;49.80;;;;;;5013524;28;20128;-19
2022/05/04 08:07:51;;;;;;;13.30;7.20;;;24.90;48.20;;;;;;5013360;28;20109;-19
2022/05/04 08:10:17;;;;;;;12.02;6.85;;;25.40;46.30;;;;;;5013320;28;20061;-19
2022/05/04 08:12:43;;;;;;;9.43;6.57;;;25.80;45.50;;;;;;5012991;28;20129;-19
2022/05/04 08:15:10;;;;;;;11.13;7.25;;;26.00;44.50;;;;;;5012985;28;20100;-18
2022/05/04 08:17:36;;;;;;;13.60;7.90;;;26.30;44.00;;;;;;5011924;28;20026;-19
2022/05/04 08:20:02;;;;;;;12.18;7.95;;;26.30;42.70;;;;;;5013002;28;20424;-19
2022/05/04 08:22:28;;;;;;;14.82;9.13;;;26.20;42.40;;;;;;5012895;28;20478;-19
2022/05/04 08:24:54;;;;;;;17.50;9.48;;;26.10;42.90;;;;;;5013345;28;20033;-18
2022/05/04 08:27:20;;;;;;;11.52;8.07;;;26.10;43.40;;;;;;5013398;28;20375;-19
2022/05/04 08:29:47;;;;;;;14.02;9.73;;;26.00;43.90;;;;;;5013002;28;20030;-19
2022/05/04 08:32:13;;;;;;;12.65;8.02;;;26.00;43.00;;;;;;5012772;28;20097;-28
2022/05/04 08:34:40;;;;;;;13.18;7.82;;;26.10;43.70;;;;;;5013577;28;20096;-18
2022/05/04 08:37:06;;;;;;;14.27;8.70;;;26.20;42.40;;;;;;5013373;28;20033;-19
2022/05/04 08:39:32;;;;;;;10.95;7.80;;;26.30;42.80;;;;;;5012938;28;20061;-18
2022/05/04 08:42:00;;;;;;;10.60;7.40;;;26.40;42.80;;;;;;5012826;28;20022;-19
2022/05/04 08:44:28;;;;;;;11.10;7.63;;;26.70;42.60;;;;;;5014649;28;20018;-18
2022/05/04 08:46:59;;;;;;;9.77;7.32;;;26.90;41.60;;;;;;5016648;28;20359;-19
2022/05/04 08:49:29;;;;;;;12.82;7.55;;;26.90;41.80;;;;;;5016493;28;20112;-19
2022/05/04 08:51:55;;;;;;;9.82;7.50;;;27.10;41.50;;;;;;5016707;28;20029;-19
2022/05/04 08:54:21;;;;;;;11.68;8.07;;;27.30;40.60;;;;;;5016170;28;20359;-19
2022/05/04 08:56:47;;;;;;;12.73;7.90;;;27.40;40.10;;;;;;5016336;28;20033;-18
2022/05/04 08:59:13;;;;;;;15.82;9.13;;;27.50;40.80;;;;;;5016465;28;20022;-17
2022/05/04 09:01:40;;;;;;;11.73;7.65;;;27.70;40.30;;;;;;5016266;28;20077;-20
2022/05/04 09:04:07;;;;;;;11.68;8.25;;;27.70;39.90;;;;;;5016197;28;20025;-19
2022/05/04 09:06:43;;;;;;;10.98;8.23;;;27.90;39.70;;;;;;5014683;28;20026;-19
2022/05/04 09:09:13;;;;;;;9.45;7.55;;;28.10;38.60;;;;;;5016502;28;20088;-18
2022/05/04 09:11:46;;;;;;;8.48;6.18;;;28.40;38.50;;;;;;5016082;28;20558;-19
2022/05/04 09:14:20;;;;;;;10.35;8.27;;;28.60;38.20;;;;;;5015834;28;20057;-19
2022/05/04 09:16:49;;;;;;;10.80;8.25;;;28.80;36.60;;;;;;5016245;28;20072;-18
2022/05/04 09:19:20;;;;;;;14.02;9.63;;;28.90;37.10;;;;;;5016235;28;20087;-19
2022/05/04 09:21:47;;;;;;;10.10;6.15;;;28.80;37.00;;;;;;5015952;28;20025;-19
2022/05/04 09:24:31;;;;;;;11.05;6.30;;;28.50;37.90;;;;;;5015804;28;20512;-19
2022/05/04 09:26:58;;;;;;;13.38;8.75;;;28.40;38.40;;;;;;5015739;28;20030;-20
2022/05/04 09:29:42;;;;;;;13.32;8.32;;;28.30;39.20;;;;;;5014449;28;20029;-19
2022/05/04 09:32:15;;;;;;;10.85;7.15;;;28.20;38.70;;;;;;5015723;28;20022;-17
2022/05/04 09:34:44;;;;;;;9.88;6.55;;;28.20;39.30;;;;;;5015682;28;20118;-18
2022/05/04 09:45:39;;;;;;;10.23;7.05;;;28.30;40.10;;;;;;5015437;28;20096;-19
2022/05/04 09:48:06;;;;;;;10.27;7.10;;;28.30;39.80;;;;;;5014185;28;20088;-18
2022/05/04 09:50:40;;;;;;;9.48;6.40;;;28.30;39.20;;;;;;5013934;28;20052;-18
2022/05/04 09:53:07;;;;;;;13.90;7.45;;;28.50;39.50;;;;;;5015293;28;20064;-19
2022/05/04 09:55:34;;;;;;;9.02;6.82;;;28.60;39.40;;;;;;5014641;28;20121;-18
2022/05/04 09:58:00;;;;;;;7.63;5.72;;;28.80;39.40;;;;;;5015717;28;20478;-19
2022/05/04 10:00:27;;;;;;;10.75;6.22;;;28.90;39.10;;;;;;5015110;28;20072;-19
2022/05/04 10:02:57;;;;;;;10.52;6.40;;;29.20;38.80;;;;;;5015379;28;20074;-19
2022/05/04 10:05:23;;;;;;;8.77;7.00;;;29.40;37.70;;;;;;5015000;28;20029;-19
2022/05/04 10:07:52;;;;;;;7.78;5.45;;;29.70;36.10;;;;;;5015239;28;20366;-19
2022/05/04 10:10:24;;;;;;;9.95;5.78;;;29.90;36.00;;;;;;5015056;28;20033;-19
2022/05/04 10:12:51;;;;;;;10.43;6.70;;;30.00;34.90;;;;;;5015131;28;20125;-19
2022/05/04 10:15:19;;;;;;;10.40;7.10;;;30.30;34.30;;;;;;5013904;28;20049;-19
2022/05/04 10:18:05;;;;;;;9.98;6.80;;;30.40;33.90;;;;;;5015121;28;20083;-20
2022/05/04 10:20:40;;;;;;;9.55;6.80;;;30.50;33.70;;;;;;5014616;28;20033;-20
2022/05/04 10:23:12;;;;;;;11.13;6.45;;;30.50;33.40;;;;;;5013606;28;20053;-19
2022/05/04 10:25:39;;;;;;;8.80;6.32;;;30.60;33.50;;;;;;5014615;28;20042;-20
2022/05/04 10:28:07;;;;;;;8.90;6.20;;;30.70;33.20;;;;;;5014853;28;20026;-19
2022/05/04 10:30:34;;;;;;;9.20;5.95;;;30.90;32.50;;;;;;5014755;28;20030;-19
2022/05/04 10:33:11;;;;;;;8.35;5.85;;;31.00;32.30;;;;;;5013309;28;20026;-20
2022/05/04 10:35:37;;;;;;;9.05;5.90;;;31.10;32.10;;;;;;5013526;28;20547;-20
2022/05/04 10:38:06;;;;;;;10.43;5.80;;;31.30;32.30;;;;;;5014646;28;20030;-20
2022/05/04 10:40:36;;;;;;;8.77;5.85;;;31.40;32.60;;;;;;5014175;28;20049;-19
2022/05/04 10:43:13;;;;;;;7.70;5.82;;;31.40;31.70;;;;;;5014616;28;20029;-20
2022/05/04 10:45:41;;;;;;;9.63;5.35;;;31.50;31.90;;;;;;5014589;28;20057;-20
2022/05/04 10:48:19;;;;;;;6.82;5.05;;;31.70;32.10;;;;;;5014265;28;20030;-19
2022/05/04 10:50:56;;;;;;;6.03;4.57;;;32.00;30.20;;;;;;5014507;28;20584;-19
2022/05/04 10:53:36;;;;;;;6.40;4.50;;;32.30;30.60;;;;;;5013051;28;20025;-19
2022/05/04 10:56:17;;;;;;;7.43;4.10;;;32.60;30.10;;;;;;5014270;28;20034;-19
2022/05/04 10:59:03;;;;;;;5.93;4.30;;;32.80;29.60;;;;;;5014713;28;20076;-19
2022/05/04 11:01:30;;;;;;;11.18;4.50;;;33.00;27.90;;;;;;5014065;28;20469;-19
2022/05/04 11:04:14;;;;;;;7.38;4.68;;;33.10;27.30;;;;;;5014263;28;20073;-20
2022/05/04 11:07:08;;;;;;;6.05;4.30;;;32.90;27.40;;;;;;5013636;28;20038;-18
2022/05/04 11:09:47;;;;;;;6.13;4.18;;;32.70;27.70;;;;;;5013980;28;20026;-18
2022/05/04 11:12:13;;;;;;;8.25;4.70;;;32.70;27.60;;;;;;5013941;28;20492;-17
2022/05/04 11:14:40;;;;;;;6.13;4.60;;;32.20;28.00;;;;;;5013676;28;20053;-19
2022/05/04 11:17:14;;;;;;;7.75;4.78;;;31.70;28.90;;;;;;5012594;28;20076;-19
2022/05/04 11:19:46;;;;;;;8.15;4.22;;;31.50;28.90;;;;;;5014402;28;20024;-19
2022/05/04 11:22:13;;;;;;;5.38;4.40;;;31.40;28.80;;;;;;5013725;28;20482;-18
2022/05/04 11:24:39;;;;;;;6.68;3.95;;;31.30;29.10;;;;;;5014438;28;20025;-19
2022/05/04 11:27:06;;;;;;;7.05;4.15;;;31.10;29.20;;;;;;4996099;28;20044;-18
2022/05/04 11:29:33;;;;;;;8.95;5.10;;;31.20;29.90;;;;;;5013877;28;20029;-18
2022/05/04 11:32:04;;;;;;;7.55;4.97;;;31.60;29.50;;;;;;5013937;28;20033;-18
2022/05/04 11:34:38;;;;;;;5.93;4.35;;;32.00;28.60;;;;;;5014029;28;20075;-19
2022/05/04 11:37:09;;;;;;;7.88;4.60;;;32.20;28.80;;;;;;5014081;28;20473;-18
2022/05/04 11:39:37;;;;;;;8.63;4.78;;;32.50;29.30;;;;;;5013779;28;20137;-19
2022/05/04 11:42:05;;;;;;;7.13;5.25;;;32.90;28.70;;;;;;5013786;28;20026;-19
2022/05/04 11:44:32;;;;;;;6.55;4.90;;;33.20;29.30;;;;;;5013114;28;20524;-18
2022/05/04 11:46:59;;;;;;;7.10;5.28;;;33.50;29.20;;;;;;5013355;28;20065;-18
2022/05/04 11:49:28;;;;;;;6.88;4.80;;;33.80;28.50;;;;;;5013504;28;20100;-19
2022/05/04 11:51:56;;;;;;;6.50;4.55;;;34.20;28.40;;;;;;5013759;28;20175;-19
2022/05/04 11:54:22;;;;;;;6.50;4.60;;;34.50;27.70;;;;;;5013568;28;20033;-19
2022/05/04 11:56:49;;;;;;;6.32;4.63;;;34.70;27.80;;;;;;5013610;28;20033;-19
2022/05/04 11:59:15;;;;;;;8.15;4.90;;;34.80;26.90;;;;;;5013209;28;20113;-19
2022/05/04 12:01:41;;;;;;;5.90;4.35;;;34.90;27.20;;;;;;5013509;28;20029;-19
2022/05/04 12:04:09;;;;;;;6.60;4.97;;;35.00;27.10;;;;;;5013266;28;20389;-19
2022/05/04 12:06:35;;;;;;;9.05;5.30;;;35.10;27.00;;;;;;5012973;28;20069;-19
2022/05/04 12:09:02;;;;;;;9.52;5.82;;;35.00;27.30;;;;;;5013426;28;20026;-18
2022/05/04 12:11:28;;;;;;;8.15;5.25;;;34.50;27.20;;;;;;5013572;28;20030;-18
2022/05/04 12:13:58;;;;;;;9.93;5.93;;;33.80;27.80;;;;;;5012887;28;20052;-19
2022/05/04 12:16:24;;;;;;;8.63;6.00;;;33.20;28.60;;;;;;5011708;28;20497;-18
2022/05/04 12:18:51;;;;;;;8.02;5.97;;;32.90;28.70;;;;;;5014237;28;20029;-18
2022/05/04 12:21:21;;;;;;;8.95;6.65;;;32.60;29.10;;;;;;5017020;28;20132;-19
2022/05/04 12:23:52;;;;;;;7.55;5.90;;;32.50;28.40;;;;;;5017088;28;20109;-19
2022/05/04 12:26:19;;;;;;;7.25;5.32;;;32.20;29.20;;;;;;5016754;28;20037;-18
2022/05/04 12:33:08;;;;;;;7.35;5.28;;;32.00;30.10;;;;;;5015834;28;20056;-18
2022/05/04 12:34:19;;;;;;;7.95;6.20;;;31.90;28.60;;;;;;5016924;28;20040;-18
2022/05/04 12:36:46;;;;;;;11.52;7.00;;;31.70;28.60;;;;;;5016711;28;20034;-18
2022/05/04 12:39:12;;;;;;;8.38;6.30;;;31.40;29.20;;;;;;5016960;28;20029;-18
2022/05/04 12:41:38;;;;;;;10.40;6.40;;;31.00;29.80;;;;;;5016601;28;20108;-21
2022/05/04 12:44:07;;;;;;;9.30;6.05;;;30.70;30.60;;;;;;5016582;28;20026;-20
2022/05/04 12:47:01;;;;;;;5.88;5.22;;;30.20;31.30;;;;;;5016287;28;20034;-21
2022/05/04 12:49:27;;;;;;;9.43;5.47;;;29.90;31.60;;;;;;5015259;28;20030;-20
2022/05/04 12:51:56;;;;;;;6.55;4.90;;;29.90;31.80;;;;;;5016819;28;20440;-20
2022/05/04 12:54:21;;;;;;;7.72;4.78;;;30.00;31.70;;;;;;5016332;28;20501;-20
2022/05/04 12:56:48;;;;;;;8.88;5.03;;;30.40;30.80;;;;;;5016572;28;20026;-20
2022/05/04 12:59:16;;;;;;;7.10;4.65;;;31.10;29.70;;;;;;5016599;28;20555;-20
2022/05/04 13:01:42;;;;;;;7.25;4.50;;;31.60;29.20;;;;;;5016307;28;20034;-20
2022/05/04 13:04:08;;;;;;;7.55;4.80;;;32.10;28.10;;;;;;5016228;28;20049;-20
2022/05/04 13:06:40;;;;;;;7.20;4.35;;;32.40;28.00;;;;;;5016015;28;20068;-20
2022/05/04 13:09:06;;;;;;;8.25;4.50;;;32.90;28.20;;;;;;5015332;28;20026;-20
2022/05/04 13:11:34;;;;;;;4.72;4.30;;;33.30;27.30;;;;;;5016169;28;20030;-20
2022/05/04 13:14:00;;;;;;;6.22;4.35;;;33.60;27.40;;;;;;5015738;28;20054;-19